sensor_id;sensor_type;location;lat;lon;timestamp;P1;durP1;ratioP1;P2;durP2;ratioP2
11228;SDS011;5671;47.936;8.716;2022-07-29T00:50:48;5.87;;;4.57;;
11228;SDS011;5671;47.936;8.716;2022-07-29T01:03:50;7.30;;;5.90;;
11228;SDS011;5671;47.936;8.716;2022-07-29T01:06:22;6.10;;;4.60;;
11228;SDS011;5671;47.936;8.716;2022-07-29T01:08:51;6.67;;;6.03;;
11228;SDS011;5671;47.936;8.716;2022-07-29T01:11:26;6.10;;;5.60;;
11228;SDS011;5671;47.936;8.716;2022-07-29T01:13:58;8.60;;;5.73;;
11228;SDS011;5671;47.936;8.716;2022-07-29T01:16:38;7.47;;;5.90;;
11228;SDS011;5671;47.936;8.716;2022-07-29T01:29:23;6.90;;;5.40;;
11228;SDS011;5671;47.936;8.716;2022-07-29T01:31:54;10.07;;;6.70;;
11228;SDS011;5671;47.936;8.716;2022-07-29T01:34:42;9.43;;;6.90;;
11228;SDS011;5671;47.936;8.716;2022-07-29T01:40:06;11.93;;;6.30;;
11228;SDS011;5671;47.936;8.716;2022-07-29T01:42:38;8.77;;;7.27;;
11228;SDS011;5671;47.936;8.716;2022-07-29T02:23:03;28.53;;;6.63;;
11228;SDS011;5671;47.936;8.716;2022-07-29T02:25:46;10.20;;;6.03;;
11228;SDS011;5671;47.936;8.716;2022-07-29T02:28:15;20.00;;;6.77;;
11228;SDS011;5671;47.936;8.716;2022-07-29T02:30:43;14.00;;;6.60;;
11228;SDS011;5671;47.936;8.716;2022-07-29T02:33:13;14.57;;;5.70;;
11228;SDS011;5671;47.936;8.716;2022-07-29T02:35:42;5.73;;;5.20;;
11228;SDS011;5671;47.936;8.716;2022-07-29T02:38:14;14.43;;;5.40;;
11228;SDS011;5671;47.936;8.716;2022-07-29T02:41:00;29.63;;;5.60;;
11228;SDS011;5671;47.936;8.716;2022-07-29T02:43:29;29.50;;;5.73;;
11228;SDS011;5671;47.936;8.716;2022-07-29T02:45:58;26.00;;;5.60;;
11228;SDS011;5671;47.936;8.716;2022-07-29T02:48:27;41.13;;;6.30;;
11228;SDS011;5671;47.936;8.716;2022-07-29T03:04:15;17.23;;;5.83;;
11228;SDS011;5671;47.936;8.716;2022-07-29T03:06:43;76.30;;;7.03;;
11228;SDS011;5671;47.936;8.716;2022-07-29T03:09:11;21.40;;;5.20;;
11228;SDS011;5671;47.936;8.716;2022-07-29T03:11:39;13.67;;;5.03;;
11228;SDS011;5671;47.936;8.716;2022-07-29T03:14:09;21.03;;;5.97;;
11228;SDS011;5671;47.936;8.716;2022-07-29T03:16:38;56.37;;;6.30;;
11228;SDS011;5671;47.936;8.716;2022-07-29T03:19:09;42.43;;;5.73;;
11228;SDS011;5671;47.936;8.716;2022-07-29T03:21:37;25.03;;;5.47;;
11228;SDS011;5671;47.936;8.716;2022-07-29T03:24:06;27.30;;;5.67;;
11228;SDS011;5671;47.936;8.716;2022-07-29T03:26:43;42.23;;;5.23;;
11228;SDS011;5671;47.936;8.716;2022-07-29T03:29:21;10.53;;;5.10;;
11228;SDS011;5671;47.936;8.716;2022-07-29T03:34:43;8.53;;;4.20;;
11228;SDS011;5671;47.936;8.716;2022-07-29T03:35:32;10.90;;;4.80;;
11228;SDS011;5671;47.936;8.716;2022-07-29T03:38:17;14.13;;;4.60;;
11228;SDS011;5671;47.936;8.716;2022-07-29T03:41:12;40.70;;;5.27;;
11228;SDS011;5671;47.936;8.716;2022-07-29T03:43:49;7.33;;;5.07;;
11228;SDS011;5671;47.936;8.716;2022-07-29T03:46:22;19.03;;;4.77;;
11228;SDS011;5671;47.936;8.716;2022-07-29T03:48:53;34.57;;;6.03;;
11228;SDS011;5671;47.936;8.716;2022-07-29T03:51:26;9.20;;;5.17;;
11228;SDS011;5671;47.936;8.716;2022-07-29T03:53:56;18.93;;;6.07;;
11228;SDS011;5671;47.936;8.716;2022-07-29T03:56:46;45.07;;;6.97;;
11228;SDS011;5671;47.936;8.716;2022-07-29T03:59:23;7.80;;;5.30;;
11228;SDS011;5671;47.936;8.716;2022-07-29T04:01:55;12.70;;;6.50;;
11228;SDS011;5671;47.936;8.716;2022-07-29T04:04:26;68.23;;;7.70;;
11228;SDS011;5671;47.936;8.716;2022-07-29T04:39:14;5.17;;;3.93;;
11228;SDS011;5671;47.936;8.716;2022-07-29T05:11:45;7.17;;;3.53;;
11228;SDS011;5671;47.936;8.716;2022-07-29T05:14:17;4.63;;;4.13;;
11228;SDS011;5671;47.936;8.716;2022-07-29T05:16:54;5.20;;;4.27;;
11228;SDS011;5671;47.936;8.716;2022-07-29T05:25:41;5.17;;;4.47;;
11228;SDS011;5671;47.936;8.716;2022-07-29T05:28:17;5.37;;;4.40;;
11228;SDS011;5671;47.936;8.716;2022-07-29T05:31:11;4.77;;;4.47;;
11228;SDS011;5671;47.936;8.716;2022-07-29T05:33:49;5.40;;;4.90;;
11228;SDS011;5671;47.936;8.716;2022-07-29T05:36:22;5.80;;;5.30;;
11228;SDS011;5671;47.936;8.716;2022-07-29T05:38:50;5.60;;;5.10;;
11228;SDS011;5671;47.936;8.716;2022-07-29T05:41:17;5.73;;;5.23;;
11228;SDS011;5671;47.936;8.716;2022-07-29T05:43:45;6.07;;;4.77;;
11228;SDS011;5671;47.936;8.716;2022-07-29T05:46:15;4.93;;;4.57;;
11228;SDS011;5671;47.936;8.716;2022-07-29T05:48:45;8.43;;;4.57;;
11228;SDS011;5671;47.936;8.716;2022-07-29T05:51:14;5.60;;;4.87;;
11228;SDS011;5671;47.936;8.716;2022-07-29T06:03:34;4.60;;;4.27;;
11228;SDS011;5671;47.936;8.716;2022-07-29T06:06:14;6.03;;;4.03;;
11228;SDS011;5671;47.936;8.716;2022-07-29T06:08:46;4.63;;;4.20;;
11228;SDS011;5671;47.936;8.716;2022-07-29T06:11:13;4.50;;;4.20;;
11228;SDS011;5671;47.936;8.716;2022-07-29T06:13:40;4.93;;;4.37;;
11228;SDS011;5671;47.936;8.716;2022-07-29T06:16:08;5.10;;;4.40;;
11228;SDS011;5671;47.936;8.716;2022-07-29T06:24:59;4.77;;;3.93;;
11228;SDS011;5671;47.936;8.716;2022-07-29T06:27:27;4.87;;;4.47;;
11228;SDS011;5671;47.936;8.716;2022-07-29T06:29:54;6.77;;;4.53;;
11228;SDS011;5671;47.936;8.716;2022-07-29T06:32:24;5.10;;;4.03;;
11228;SDS011;5671;47.936;8.716;2022-07-29T06:34:51;5.40;;;4.30;;
11228;SDS011;5671;47.936;8.716;2022-07-29T06:37:20;5.17;;;3.67;;
11228;SDS011;5671;47.936;8.716;2022-07-29T06:39:50;4.40;;;4.00;;
11228;SDS011;5671;47.936;8.716;2022-07-29T06:42:37;4.93;;;4.10;;
11228;SDS011;5671;47.936;8.716;2022-07-29T06:45:07;5.47;;;4.23;;
11228;SDS011;5671;47.936;8.716;2022-07-29T06:47:36;5.37;;;3.90;;
11228;SDS011;5671;47.936;8.716;2022-07-29T06:50:04;4.90;;;4.40;;
11228;SDS011;5671;47.936;8.716;2022-07-29T06:52:31;6.17;;;4.00;;
11228;SDS011;5671;47.936;8.716;2022-07-29T06:54:58;8.27;;;4.13;;
11228;SDS011;5671;47.936;8.716;2022-07-29T06:57:25;5.37;;;4.20;;
11228;SDS011;5671;47.936;8.716;2022-07-29T06:59:52;4.40;;;4.00;;
11228;SDS011;5671;47.936;8.716;2022-07-29T07:02:19;11.30;;;4.27;;
11228;SDS011;5671;47.936;8.716;2022-07-29T07:04:47;4.77;;;4.10;;
11228;SDS011;5671;47.936;8.716;2022-07-29T07:07:14;7.20;;;5.40;;
11228;SDS011;5671;47.936;8.716;2022-07-29T07:09:41;6.80;;;4.53;;
11228;SDS011;5671;47.936;8.716;2022-07-29T07:12:08;5.80;;;4.30;;
11228;SDS011;5671;47.936;8.716;2022-07-29T07:14:35;4.90;;;4.03;;
11228;SDS011;5671;47.936;8.716;2022-07-29T07:17:02;6.93;;;4.67;;
11228;SDS011;5671;47.936;8.716;2022-07-29T07:19:31;4.50;;;4.10;;
11228;SDS011;5671;47.936;8.716;2022-07-29T07:22:00;6.07;;;3.67;;
11228;SDS011;5671;47.936;8.716;2022-07-29T07:24:27;4.17;;;3.80;;
11228;SDS011;5671;47.936;8.716;2022-07-29T07:26:55;4.37;;;3.60;;
11228;SDS011;5671;47.936;8.716;2022-07-29T07:29:22;5.07;;;3.90;;
11228;SDS011;5671;47.936;8.716;2022-07-29T07:31:48;4.73;;;4.23;;
11228;SDS011;5671;47.936;8.716;2022-07-29T07:34:15;3.93;;;3.60;;
11228;SDS011;5671;47.936;8.716;2022-07-29T07:36:42;6.83;;;4.47;;
11228;SDS011;5671;47.936;8.716;2022-07-29T07:39:11;6.00;;;4.20;;
11228;SDS011;5671;47.936;8.716;2022-07-29T07:41:38;6.20;;;4.73;;
11228;SDS011;5671;47.936;8.716;2022-07-29T07:44:05;4.47;;;4.07;;
11228;SDS011;5671;47.936;8.716;2022-07-29T07:46:46;4.70;;;4.30;;
11228;SDS011;5671;47.936;8.716;2022-07-29T07:49:13;4.83;;;4.33;;
11228;SDS011;5671;47.936;8.716;2022-07-29T07:51:42;5.53;;;4.20;;
11228;SDS011;5671;47.936;8.716;2022-07-29T07:54:14;12.10;;;8.60;;
11228;SDS011;5671;47.936;8.716;2022-07-29T07:56:41;6.27;;;5.27;;
11228;SDS011;5671;47.936;8.716;2022-07-29T07:59:08;11.80;;;5.33;;
11228;SDS011;5671;47.936;8.716;2022-07-29T08:01:35;7.80;;;4.43;;
11228;SDS011;5671;47.936;8.716;2022-07-29T08:04:02;9.77;;;5.10;;
11228;SDS011;5671;47.936;8.716;2022-07-29T08:06:33;5.10;;;4.60;;
11228;SDS011;5671;47.936;8.716;2022-07-29T08:09:02;8.27;;;4.33;;
11228;SDS011;5671;47.936;8.716;2022-07-29T08:11:32;5.57;;;4.33;;
11228;SDS011;5671;47.936;8.716;2022-07-29T08:14:03;5.33;;;4.50;;
11228;SDS011;5671;47.936;8.716;2022-07-29T08:16:33;5.40;;;4.90;;
11228;SDS011;5671;47.936;8.716;2022-07-29T08:19:02;5.40;;;4.33;;
11228;SDS011;5671;47.936;8.716;2022-07-29T08:21:30;4.93;;;4.50;;
11228;SDS011;5671;47.936;8.716;2022-07-29T08:23:58;6.20;;;4.50;;
11228;SDS011;5671;47.936;8.716;2022-07-29T08:26:44;8.83;;;4.40;;
11228;SDS011;5671;47.936;8.716;2022-07-29T08:29:12;6.03;;;4.67;;
11228;SDS011;5671;47.936;8.716;2022-07-29T08:31:42;4.80;;;4.40;;
11228;SDS011;5671;47.936;8.716;2022-07-29T08:34:10;6.17;;;4.57;;
11228;SDS011;5671;47.936;8.716;2022-07-29T08:36:38;6.23;;;4.17;;
11228;SDS011;5671;47.936;8.716;2022-07-29T08:39:05;5.37;;;4.63;;
11228;SDS011;5671;47.936;8.716;2022-07-29T08:41:34;6.13;;;4.73;;
11228;SDS011;5671;47.936;8.716;2022-07-29T08:44:05;5.90;;;4.27;;
11228;SDS011;5671;47.936;8.716;2022-07-29T08:46:33;4.97;;;4.40;;
11228;SDS011;5671;47.936;8.716;2022-07-29T08:49:03;4.30;;;3.90;;
11228;SDS011;5671;47.936;8.716;2022-07-29T08:51:32;4.43;;;4.00;;
11228;SDS011;5671;47.936;8.716;2022-07-29T08:54:01;6.93;;;4.23;;
11228;SDS011;5671;47.936;8.716;2022-07-29T09:02:58;5.03;;;3.70;;
11228;SDS011;5671;47.936;8.716;2022-07-29T09:05:26;3.33;;;3.03;;
11228;SDS011;5671;47.936;8.716;2022-07-29T09:11:25;3.53;;;3.20;;
11228;SDS011;5671;47.936;8.716;2022-07-29T09:34:24;2.97;;;2.73;;
11228;SDS011;5671;47.936;8.716;2022-07-29T09:43:16;2.87;;;2.67;;
11228;SDS011;5671;47.936;8.716;2022-07-29T10:09:16;5.10;;;2.83;;
11228;SDS011;5671;47.936;8.716;2022-07-29T10:11:47;3.97;;;2.90;;
11228;SDS011;5671;47.936;8.716;2022-07-29T10:14:35;4.47;;;2.70;;
11228;SDS011;5671;47.936;8.716;2022-07-29T10:17:12;6.27;;;3.10;;
11228;SDS011;5671;47.936;8.716;2022-07-29T10:19:42;3.70;;;2.80;;
11228;SDS011;5671;47.936;8.716;2022-07-29T10:22:24;5.97;;;3.00;;
11228;SDS011;5671;47.936;8.716;2022-07-29T10:24:58;4.30;;;3.10;;
11228;SDS011;5671;47.936;8.716;2022-07-29T10:27:29;3.73;;;3.37;;
11228;SDS011;5671;47.936;8.716;2022-07-29T10:29:58;4.30;;;3.00;;
11228;SDS011;5671;47.936;8.716;2022-07-29T10:32:31;4.50;;;3.73;;
11228;SDS011;5671;47.936;8.716;2022-07-29T10:35:18;3.93;;;3.57;;
11228;SDS011;5671;47.936;8.716;2022-07-29T10:38:02;3.33;;;2.80;;
11228;SDS011;5671;47.936;8.716;2022-07-29T10:40:43;3.97;;;2.80;;
11228;SDS011;5671;47.936;8.716;2022-07-29T10:43:37;3.60;;;2.67;;
11228;SDS011;5671;47.936;8.716;2022-07-29T10:46:08;5.97;;;2.70;;
11228;SDS011;5671;47.936;8.716;2022-07-29T10:54:18;3.03;;;2.80;;
11228;SDS011;5671;47.936;8.716;2022-07-29T10:57:10;4.13;;;3.00;;
11228;SDS011;5671;47.936;8.716;2022-07-29T10:59:41;5.90;;;3.10;;
11228;SDS011;5671;47.936;8.716;2022-07-29T11:05:26;4.67;;;2.60;;
11228;SDS011;5671;47.936;8.716;2022-07-29T11:10:45;3.70;;;2.60;;
11228;SDS011;5671;47.936;8.716;2022-07-29T11:13:13;3.90;;;2.47;;
11228;SDS011;5671;47.936;8.716;2022-07-29T11:16:17;6.23;;;2.53;;
11228;SDS011;5671;47.936;8.716;2022-07-29T11:21:46;5.20;;;2.33;;
11228;SDS011;5671;47.936;8.716;2022-07-29T11:24:15;3.67;;;2.50;;
11228;SDS011;5671;47.936;8.716;2022-07-29T11:26:44;3.57;;;2.30;;
11228;SDS011;5671;47.936;8.716;2022-07-29T11:29:16;3.23;;;1.80;;
11228;SDS011;5671;47.936;8.716;2022-07-29T11:31:47;8.23;;;1.50;;
11228;SDS011;5671;47.936;8.716;2022-07-29T11:34:24;3.73;;;1.77;;
11228;SDS011;5671;47.936;8.716;2022-07-29T11:42:44;2.53;;;1.40;;
11228;SDS011;5671;47.936;8.716;2022-07-29T11:45:13;1.63;;;1.50;;
11228;SDS011;5671;47.936;8.716;2022-07-29T11:47:46;4.23;;;1.60;;
11228;SDS011;5671;47.936;8.716;2022-07-29T11:50:31;1.90;;;1.50;;
11228;SDS011;5671;47.936;8.716;2022-07-29T11:52:59;2.83;;;1.50;;
11228;SDS011;5671;47.936;8.716;2022-07-29T11:55:27;2.27;;;1.40;;
11228;SDS011;5671;47.936;8.716;2022-07-29T11:57:56;3.20;;;1.63;;
11228;SDS011;5671;47.936;8.716;2022-07-29T12:00:28;2.80;;;1.83;;
11228;SDS011;5671;47.936;8.716;2022-07-29T12:02:58;4.77;;;2.43;;
11228;SDS011;5671;47.936;8.716;2022-07-29T12:05:32;6.23;;;2.43;;
11228;SDS011;5671;47.936;8.716;2022-07-29T12:08:06;4.93;;;2.50;;
11228;SDS011;5671;47.936;8.716;2022-07-29T12:10:34;3.97;;;2.53;;
11228;SDS011;5671;47.936;8.716;2022-07-29T12:13:02;2.73;;;1.90;;
11228;SDS011;5671;47.936;8.716;2022-07-29T12:15:29;2.43;;;2.03;;
11228;SDS011;5671;47.936;8.716;2022-07-29T12:18:14;2.27;;;1.63;;
11228;SDS011;5671;47.936;8.716;2022-07-29T12:20:45;1.70;;;1.60;;
11228;SDS011;5671;47.936;8.716;2022-07-29T12:23:13;3.13;;;1.77;;
11228;SDS011;5671;47.936;8.716;2022-07-29T12:25:42;2.40;;;1.50;;
11228;SDS011;5671;47.936;8.716;2022-07-29T12:28:10;3.07;;;1.57;;
11228;SDS011;5671;47.936;8.716;2022-07-29T12:30:41;1.97;;;1.83;;
11228;SDS011;5671;47.936;8.716;2022-07-29T12:33:18;2.63;;;2.10;;
11228;SDS011;5671;47.936;8.716;2022-07-29T12:35:49;5.73;;;2.50;;
11228;SDS011;5671;47.936;8.716;2022-07-29T12:38:17;5.37;;;2.07;;
11228;SDS011;5671;47.936;8.716;2022-07-29T12:40:46;3.87;;;2.50;;
11228;SDS011;5671;47.936;8.716;2022-07-29T12:43:14;2.30;;;2.10;;
11228;SDS011;5671;47.936;8.716;2022-07-29T12:45:45;5.80;;;2.50;;
11228;SDS011;5671;47.936;8.716;2022-07-29T12:48:15;4.10;;;2.53;;
11228;SDS011;5671;47.936;8.716;2022-07-29T12:50:54;2.93;;;2.47;;
11228;SDS011;5671;47.936;8.716;2022-07-29T12:53:23;2.10;;;2.00;;
11228;SDS011;5671;47.936;8.716;2022-07-29T12:55:52;3.20;;;2.27;;
11228;SDS011;5671;47.936;8.716;2022-07-29T12:58:28;5.50;;;2.40;;
11228;SDS011;5671;47.936;8.716;2022-07-29T13:01:03;6.37;;;2.83;;
11228;SDS011;5671;47.936;8.716;2022-07-29T13:03:45;13.27;;;4.97;;
11228;SDS011;5671;47.936;8.716;2022-07-29T13:06:34;9.67;;;3.90;;
11228;SDS011;5671;47.936;8.716;2022-07-29T13:09:09;13.27;;;5.13;;
11228;SDS011;5671;47.936;8.716;2022-07-29T13:11:38;21.70;;;4.93;;
11228;SDS011;5671;47.936;8.716;2022-07-29T13:14:07;34.23;;;18.63;;
11228;SDS011;5671;47.936;8.716;2022-07-29T13:16:35;83.67;;;24.67;;
11228;SDS011;5671;47.936;8.716;2022-07-29T13:19:07;44.80;;;24.20;;
11228;SDS011;5671;47.936;8.716;2022-07-29T13:21:40;111.77;;;26.17;;
11228;SDS011;5671;47.936;8.716;2022-07-29T13:24:07;33.10;;;16.90;;
11228;SDS011;5671;47.936;8.716;2022-07-29T13:26:34;23.37;;;16.20;;
11228;SDS011;5671;47.936;8.716;2022-07-29T13:29:05;20.57;;;12.10;;
11228;SDS011;5671;47.936;8.716;2022-07-29T13:31:33;20.77;;;12.27;;
11228;SDS011;5671;47.936;8.716;2022-07-29T13:34:00;15.73;;;11.17;;
11228;SDS011;5671;47.936;8.716;2022-07-29T13:36:26;24.77;;;13.83;;
11228;SDS011;5671;47.936;8.716;2022-07-29T13:38:57;20.80;;;12.47;;
11228;SDS011;5671;47.936;8.716;2022-07-29T13:41:26;15.87;;;9.30;;
11228;SDS011;5671;47.936;8.716;2022-07-29T13:43:53;24.53;;;10.67;;
11228;SDS011;5671;47.936;8.716;2022-07-29T13:46:20;26.90;;;11.57;;
11228;SDS011;5671;47.936;8.716;2022-07-29T13:48:47;19.83;;;10.63;;
11228;SDS011;5671;47.936;8.716;2022-07-29T13:51:14;19.50;;;11.60;;
11228;SDS011;5671;47.936;8.716;2022-07-29T13:53:41;14.57;;;12.00;;
11228;SDS011;5671;47.936;8.716;2022-07-29T13:56:09;14.63;;;10.37;;
11228;SDS011;5671;47.936;8.716;2022-07-29T13:58:36;14.03;;;10.17;;
11228;SDS011;5671;47.936;8.716;2022-07-29T14:01:03;20.37;;;10.57;;
11228;SDS011;5671;47.936;8.716;2022-07-29T14:03:30;18.53;;;10.60;;
11228;SDS011;5671;47.936;8.716;2022-07-29T14:05:57;12.63;;;9.33;;
11228;SDS011;5671;47.936;8.716;2022-07-29T14:08:25;13.93;;;9.80;;
11228;SDS011;5671;47.936;8.716;2022-07-29T14:10:53;19.10;;;9.33;;
11228;SDS011;5671;47.936;8.716;2022-07-29T14:13:22;13.60;;;8.77;;
11228;SDS011;5671;47.936;8.716;2022-07-29T14:15:55;14.40;;;9.27;;
11228;SDS011;5671;47.936;8.716;2022-07-29T14:18:35;18.63;;;10.10;;
11228;SDS011;5671;47.936;8.716;2022-07-29T14:21:02;15.53;;;10.43;;
11228;SDS011;5671;47.936;8.716;2022-07-29T14:23:29;9.80;;;8.33;;
11228;SDS011;5671;47.936;8.716;2022-07-29T14:25:56;14.13;;;9.70;;
11228;SDS011;5671;47.936;8.716;2022-07-29T14:28:24;12.93;;;8.80;;
11228;SDS011;5671;47.936;8.716;2022-07-29T14:30:57;13.37;;;8.03;;
11228;SDS011;5671;47.936;8.716;2022-07-29T14:33:30;12.83;;;8.97;;
11228;SDS011;5671;47.936;8.716;2022-07-29T14:35:57;9.47;;;7.63;;
11228;SDS011;5671;47.936;8.716;2022-07-29T14:38:24;12.30;;;8.93;;
11228;SDS011;5671;47.936;8.716;2022-07-29T14:40:51;8.97;;;7.20;;
11228;SDS011;5671;47.936;8.716;2022-07-29T14:43:48;12.23;;;8.53;;
11228;SDS011;5671;47.936;8.716;2022-07-29T14:49:16;7.97;;;5.20;;
11228;SDS011;5671;47.936;8.716;2022-07-29T14:51:46;6.73;;;6.07;;
11228;SDS011;5671;47.936;8.716;2022-07-29T14:54:13;5.47;;;4.97;;
11228;SDS011;5671;47.936;8.716;2022-07-29T14:59:48;9.37;;;6.63;;
11228;SDS011;5671;47.936;8.716;2022-07-29T15:02:18;6.27;;;5.00;;
11228;SDS011;5671;47.936;8.716;2022-07-29T15:18:30;10.77;;;6.47;;
11228;SDS011;5671;47.936;8.716;2022-07-29T15:20:57;8.63;;;6.10;;
11228;SDS011;5671;47.936;8.716;2022-07-29T15:23:25;7.27;;;6.20;;
11228;SDS011;5671;47.936;8.716;2022-07-29T15:25:52;13.23;;;6.37;;
11228;SDS011;5671;47.936;8.716;2022-07-29T15:28:21;11.33;;;6.60;;
11228;SDS011;5671;47.936;8.716;2022-07-29T15:30:48;7.30;;;6.60;;
11228;SDS011;5671;47.936;8.716;2022-07-29T15:33:15;7.73;;;6.33;;
11228;SDS011;5671;47.936;8.716;2022-07-29T15:35:47;9.63;;;6.57;;
11228;SDS011;5671;47.936;8.716;2022-07-29T15:38:15;7.27;;;5.70;;
11228;SDS011;5671;47.936;8.716;2022-07-29T15:40:42;10.37;;;6.17;;
11228;SDS011;5671;47.936;8.716;2022-07-29T15:43:11;7.93;;;5.50;;
11228;SDS011;5671;47.936;8.716;2022-07-29T15:45:38;6.83;;;5.00;;
11228;SDS011;5671;47.936;8.716;2022-07-29T15:48:07;6.60;;;4.30;;
11228;SDS011;5671;47.936;8.716;2022-07-29T15:50:35;7.23;;;5.07;;
11228;SDS011;5671;47.936;8.716;2022-07-29T15:55:54;8.63;;;4.80;;
11228;SDS011;5671;47.936;8.716;2022-07-29T15:58:21;5.87;;;4.53;;
11228;SDS011;5671;47.936;8.716;2022-07-29T16:00:48;5.40;;;4.90;;
11228;SDS011;5671;47.936;8.716;2022-07-29T16:03:15;6.20;;;4.73;;
11228;SDS011;5671;47.936;8.716;2022-07-29T16:05:42;9.40;;;5.17;;
11228;SDS011;5671;47.936;8.716;2022-07-29T16:08:09;7.40;;;4.67;;
11228;SDS011;5671;47.936;8.716;2022-07-29T16:10:38;4.83;;;4.17;;
11228;SDS011;5671;47.936;8.716;2022-07-29T16:13:05;5.67;;;4.37;;
11228;SDS011;5671;47.936;8.716;2022-07-29T16:15:32;4.20;;;3.90;;
11228;SDS011;5671;47.936;8.716;2022-07-29T16:17:59;4.47;;;4.07;;
11228;SDS011;5671;47.936;8.716;2022-07-29T16:20:26;6.20;;;4.20;;
11228;SDS011;5671;47.936;8.716;2022-07-29T16:22:53;7.53;;;4.80;;
11228;SDS011;5671;47.936;8.716;2022-07-29T16:25:20;9.73;;;5.00;;
11228;SDS011;5671;47.936;8.716;2022-07-29T16:27:49;4.97;;;4.47;;
11228;SDS011;5671;47.936;8.716;2022-07-29T16:30:19;4.50;;;4.07;;
11228;SDS011;5671;47.936;8.716;2022-07-29T16:32:47;4.87;;;4.33;;
11228;SDS011;5671;47.936;8.716;2022-07-29T16:35:17;6.30;;;4.20;;
11228;SDS011;5671;47.936;8.716;2022-07-29T16:37:44;7.50;;;4.10;;
11228;SDS011;5671;47.936;8.716;2022-07-29T16:40:11;6.77;;;4.00;;
11228;SDS011;5671;47.936;8.716;2022-07-29T16:42:38;4.57;;;3.53;;
11228;SDS011;5671;47.936;8.716;2022-07-29T16:45:08;4.80;;;3.50;;
11228;SDS011;5671;47.936;8.716;2022-07-29T16:47:35;5.47;;;3.70;;
11228;SDS011;5671;47.936;8.716;2022-07-29T16:50:02;3.53;;;3.07;;
11228;SDS011;5671;47.936;8.716;2022-07-29T16:52:30;3.53;;;3.20;;
11228;SDS011;5671;47.936;8.716;2022-07-29T16:54:57;4.17;;;3.70;;
11228;SDS011;5671;47.936;8.716;2022-07-29T16:57:24;6.00;;;3.30;;
11228;SDS011;5671;47.936;8.716;2022-07-29T16:59:51;5.40;;;3.57;;
11228;SDS011;5671;47.936;8.716;2022-07-29T17:05:03;3.43;;;3.10;;
11228;SDS011;5671;47.936;8.716;2022-07-29T17:07:30;5.57;;;3.00;;
11228;SDS011;5671;47.936;8.716;2022-07-29T17:10:02;3.40;;;3.10;;
11228;SDS011;5671;47.936;8.716;2022-07-29T17:12:32;5.20;;;3.50;;
11228;SDS011;5671;47.936;8.716;2022-07-29T17:15:00;3.60;;;3.13;;
11228;SDS011;5671;47.936;8.716;2022-07-29T17:17:46;4.07;;;2.87;;
11228;SDS011;5671;47.936;8.716;2022-07-29T17:20:16;3.20;;;2.87;;
11228;SDS011;5671;47.936;8.716;2022-07-29T17:23:00;2.80;;;2.47;;
11228;SDS011;5671;47.936;8.716;2022-07-29T17:25:32;5.30;;;3.23;;
11228;SDS011;5671;47.936;8.716;2022-07-29T17:27:59;9.83;;;3.03;;
11228;SDS011;5671;47.936;8.716;2022-07-29T17:30:26;9.13;;;3.00;;
11228;SDS011;5671;47.936;8.716;2022-07-29T17:32:55;6.97;;;3.00;;
11228;SDS011;5671;47.936;8.716;2022-07-29T17:35:22;3.20;;;2.90;;
11228;SDS011;5671;47.936;8.716;2022-07-29T17:38:14;4.30;;;2.73;;
11228;SDS011;5671;47.936;8.716;2022-07-29T17:40:41;3.77;;;2.80;;
11228;SDS011;5671;47.936;8.716;2022-07-29T17:43:11;3.60;;;2.87;;
11228;SDS011;5671;47.936;8.716;2022-07-29T17:45:38;4.27;;;2.80;;
11228;SDS011;5671;47.936;8.716;2022-07-29T17:48:07;6.13;;;2.77;;
11228;SDS011;5671;47.936;8.716;2022-07-29T17:50:35;4.50;;;3.20;;
11228;SDS011;5671;47.936;8.716;2022-07-29T17:53:02;4.13;;;2.87;;
11228;SDS011;5671;47.936;8.716;2022-07-29T17:55:29;4.33;;;3.00;;
11228;SDS011;5671;47.936;8.716;2022-07-29T17:57:56;5.23;;;3.00;;
11228;SDS011;5671;47.936;8.716;2022-07-29T18:00:23;6.17;;;3.10;;
11228;SDS011;5671;47.936;8.716;2022-07-29T18:02:51;4.10;;;3.00;;
11228;SDS011;5671;47.936;8.716;2022-07-29T18:05:19;7.00;;;3.30;;
11228;SDS011;5671;47.936;8.716;2022-07-29T18:07:46;9.90;;;3.53;;
11228;SDS011;5671;47.936;8.716;2022-07-29T18:10:14;5.90;;;3.20;;
11228;SDS011;5671;47.936;8.716;2022-07-29T18:12:41;4.40;;;3.20;;
11228;SDS011;5671;47.936;8.716;2022-07-29T18:15:08;6.17;;;3.27;;
11228;SDS011;5671;47.936;8.716;2022-07-29T18:17:35;3.37;;;3.03;;
11228;SDS011;5671;47.936;8.716;2022-07-29T18:20:03;4.13;;;2.80;;
11228;SDS011;5671;47.936;8.716;2022-07-29T18:22:32;6.57;;;3.07;;
11228;SDS011;5671;47.936;8.716;2022-07-29T18:25:02;4.10;;;3.50;;
11228;SDS011;5671;47.936;8.716;2022-07-29T18:27:29;3.50;;;3.20;;
11228;SDS011;5671;47.936;8.716;2022-07-29T18:29:56;4.10;;;3.07;;
11228;SDS011;5671;47.936;8.716;2022-07-29T18:32:23;4.33;;;3.20;;
11228;SDS011;5671;47.936;8.716;2022-07-29T18:34:52;3.13;;;2.83;;
11228;SDS011;5671;47.936;8.716;2022-07-29T18:37:26;3.50;;;3.20;;
11228;SDS011;5671;47.936;8.716;2022-07-29T18:39:55;4.33;;;3.13;;
11228;SDS011;5671;47.936;8.716;2022-07-29T18:42:22;7.13;;;3.23;;
11228;SDS011;5671;47.936;8.716;2022-07-29T18:44:54;5.20;;;3.60;;
11228;SDS011;5671;47.936;8.716;2022-07-29T18:47:21;5.47;;;3.37;;
11228;SDS011;5671;47.936;8.716;2022-07-29T18:49:50;4.23;;;3.40;;
11228;SDS011;5671;47.936;8.716;2022-07-29T18:52:17;4.13;;;3.73;;
11228;SDS011;5671;47.936;8.716;2022-07-29T18:54:44;3.77;;;2.93;;
11228;SDS011;5671;47.936;8.716;2022-07-29T18:57:12;8.13;;;3.63;;
11228;SDS011;5671;47.936;8.716;2022-07-29T18:59:40;5.47;;;3.53;;
11228;SDS011;5671;47.936;8.716;2022-07-29T19:02:09;4.53;;;3.70;;
11228;SDS011;5671;47.936;8.716;2022-07-29T19:04:36;6.53;;;3.70;;
11228;SDS011;5671;47.936;8.716;2022-07-29T19:07:03;4.97;;;3.67;;
11228;SDS011;5671;47.936;8.716;2022-07-29T19:09:30;4.83;;;3.93;;
11228;SDS011;5671;47.936;8.716;2022-07-29T19:11:58;3.77;;;3.47;;
11228;SDS011;5671;47.936;8.716;2022-07-29T19:14:27;6.10;;;3.20;;
11228;SDS011;5671;47.936;8.716;2022-07-29T19:16:54;4.90;;;3.07;;
11228;SDS011;5671;47.936;8.716;2022-07-29T19:19:21;6.00;;;3.50;;
11228;SDS011;5671;47.936;8.716;2022-07-29T19:21:48;4.20;;;3.47;;
11228;SDS011;5671;47.936;8.716;2022-07-29T19:24:15;4.93;;;3.27;;
11228;SDS011;5671;47.936;8.716;2022-07-29T19:26:42;3.27;;;2.97;;
11228;SDS011;5671;47.936;8.716;2022-07-29T19:29:10;8.70;;;3.50;;
11228;SDS011;5671;47.936;8.716;2022-07-29T19:31:39;5.37;;;4.00;;
11228;SDS011;5671;47.936;8.716;2022-07-29T19:34:07;3.93;;;3.53;;
11228;SDS011;5671;47.936;8.716;2022-07-29T19:36:34;4.53;;;2.90;;
11228;SDS011;5671;47.936;8.716;2022-07-29T19:39:05;7.60;;;3.70;;
11228;SDS011;5671;47.936;8.716;2022-07-29T19:41:35;5.07;;;3.40;;
11228;SDS011;5671;47.936;8.716;2022-07-29T19:44:03;4.57;;;3.87;;
11228;SDS011;5671;47.936;8.716;2022-07-29T19:46:30;4.47;;;3.23;;
11228;SDS011;5671;47.936;8.716;2022-07-29T19:48:59;4.30;;;3.97;;
11228;SDS011;5671;47.936;8.716;2022-07-29T19:51:26;3.87;;;3.50;;
11228;SDS011;5671;47.936;8.716;2022-07-29T19:54:01;5.67;;;3.80;;
11228;SDS011;5671;47.936;8.716;2022-07-29T19:56:28;4.80;;;3.87;;
11228;SDS011;5671;47.936;8.716;2022-07-29T19:58:56;4.00;;;3.60;;
11228;SDS011;5671;47.936;8.716;2022-07-29T20:01:23;5.03;;;3.93;;
11228;SDS011;5671;47.936;8.716;2022-07-29T20:03:50;4.17;;;3.73;;
11228;SDS011;5671;47.936;8.716;2022-07-29T20:06:19;6.10;;;3.60;;
11228;SDS011;5671;47.936;8.716;2022-07-29T20:08:47;5.83;;;4.30;;
11228;SDS011;5671;47.936;8.716;2022-07-29T20:11:14;4.63;;;4.07;;
11228;SDS011;5671;47.936;8.716;2022-07-29T20:13:41;6.10;;;3.90;;
11228;SDS011;5671;47.936;8.716;2022-07-29T20:16:08;7.67;;;5.00;;
11228;SDS011;5671;47.936;8.716;2022-07-29T20:18:35;4.37;;;3.97;;
11228;SDS011;5671;47.936;8.716;2022-07-29T20:21:02;7.40;;;4.20;;
11228;SDS011;5671;47.936;8.716;2022-07-29T20:23:30;3.60;;;3.30;;
11228;SDS011;5671;47.936;8.716;2022-07-29T20:25:57;5.00;;;4.00;;
11228;SDS011;5671;47.936;8.716;2022-07-29T20:28:25;4.80;;;4.10;;
11228;SDS011;5671;47.936;8.716;2022-07-29T20:30:52;5.60;;;3.83;;
11228;SDS011;5671;47.936;8.716;2022-07-29T20:33:19;6.27;;;4.80;;